Time;durP1;ratioP1;P1;durP2;ratioP2;P2;SDS_P1;SDS_P2;PMS_P1;PMS_P2;Temp;Humidity;BMP_temperature;BMP_pressure;BME280_temperature;BME280_humidity;BME280_pressure;Samples;Min_cycle;Max_cycle;Signal;HPM_P1;HPM_P2
2023/09/14 00:00:28;;;;;;;;;20.75;19.75;;;;;20.58;70.59;101702.97;5035742;28;45401;-38
2023/09/14 00:02:54;;;;;;;;;22.00;19.75;;;;;20.56;71.17;101701.47;5035303;28;52599;-38
2023/09/14 00:05:19;;;;;;;;;21.25;19.50;;;;;20.48;72.20;101697.06;5035029;28;52134;-38
2023/09/14 00:07:44;;;;;;;;;25.50;18.75;;;;;20.53;71.71;101708.13;5035750;28;45273;-38
2023/09/14 00:10:10;;;;;;;;;27.75;21.75;;;;;20.53;72.29;101702.72;5035178;28;45415;-37
2023/09/14 00:12:35;;;;;;;;;21.50;17.25;;;;;20.50;70.92;101697.69;5035258;28;46099;-40
2023/09/14 00:15:00;;;;;;;;;17.50;17.00;;;;;20.50;72.14;101699.56;5035448;28;45277;-38
2023/09/14 00:17:26;;;;;;;;;18.75;18.00;;;;;20.50;71.95;101700.38;5035266;28;45396;-38
2023/09/14 00:19:51;;;;;;;;;18.50;17.50;;;;;20.49;71.45;101704.13;5035486;28;45405;-38
2023/09/14 00:22:16;;;;;;;;;17.50;17.50;;;;;20.46;72.21;101698.22;5035238;28;47161;-38
2023/09/14 00:24:42;;;;;;;;;18.75;16.75;;;;;20.40;72.36;101702.53;5035003;28;51304;-39
2023/09/14 00:27:07;;;;;;;;;18.25;16.75;;;;;20.40;72.47;101703.34;5035257;28;45479;-38
2023/09/14 00:29:32;;;;;;;;;19.00;17.75;;;;;20.39;72.39;101700.81;5035493;28;45710;-38
2023/09/14 00:31:58;;;;;;;;;21.25;15.00;;;;;20.37;72.51;101697.47;5037478;28;46031;-38
2023/09/14 00:34:23;;;;;;;;;20.00;17.25;;;;;20.33;72.51;101698.88;5038174;28;48088;-40
2023/09/14 00:36:48;;;;;;;;;21.50;20.00;;;;;20.28;72.43;101695.91;5038679;28;45360;-38
2023/09/14 00:39:14;;;;;;;;;18.00;15.75;;;;;19.92;71.57;101645.34;5038634;28;45501;-42
2023/09/14 00:41:40;;;;;;;;;16.75;16.00;;;;;20.21;71.70;101697.69;5038225;28;46192;-39
2023/09/14 00:44:05;;;;;;;;;20.25;17.00;;;;;20.16;72.13;101703.66;5038377;28;45373;-36
2023/09/14 00:46:30;;;;;;;;;20.25;16.25;;;;;20.15;72.47;101701.97;5036077;28;45930;-39
2023/09/14 00:48:57;;;;;;;;;22.00;19.00;;;;;20.15;72.34;101708.22;5038557;28;45323;-38
2023/09/14 00:51:23;;;;;;;;;22.50;20.75;;;;;20.15;72.58;101708.22;5038061;28;47252;-39
2023/09/14 00:53:50;;;;;;;;;22.00;18.75;;;;;20.12;72.63;101705.88;5038132;28;45385;-39
2023/09/14 00:56:17;;;;;;;;;16.50;15.00;;;;;20.08;72.66;101706.44;5038029;28;45291;-39
2023/09/14 00:58:43;;;;;;;;;17.75;15.00;;;;;20.03;72.83;101709.69;5038436;28;45481;-38
2023/09/14 01:01:08;;;;;;;;;21.50;20.25;;;;;19.98;72.89;101706.72;5037915;28;46315;-39
2023/09/14 01:03:34;;;;;;;;;22.75;18.75;;;;;19.94;73.79;101700.84;5038256;28;45453;-39
2023/09/14 01:05:59;;;;;;;;;20.75;16.75;;;;;19.92;73.48;101696.63;5038186;28;45329;-40
2023/09/14 01:08:25;;;;;;;;;16.25;14.25;;;;;19.89;72.97;101697.88;5038459;28;45474;-39
2023/09/14 01:10:51;;;;;;;;;17.25;17.00;;;;;19.85;72.55;101696.56;5036322;28;46097;-42
2023/09/14 01:13:29;;;;;;;;;18.00;18.00;;;;;19.75;73.16;101690.56;5037627;28;45315;-39
2023/09/14 01:16:04;;;;;;;;;18.75;16.50;;;;;19.82;73.82;101707.72;5038093;28;45296;-40
2023/09/14 01:18:41;;;;;;;;;25.00;19.25;;;;;19.81;73.71;101706.03;5038435;28;45318;-39
2023/09/14 01:21:16;;;;;;;;;19.50;16.50;;;;;19.80;73.13;101708.91;5037478;28;46557;-36
2023/09/14 01:24:09;;;;;;;;;18.50;16.50;;;;;19.77;73.87;101706.59;5037674;28;45378;-39
2023/09/14 01:26:35;;;;;;;;;23.25;19.50;;;;;19.76;74.41;101718.41;5037482;28;45473;-39
2023/09/14 01:29:04;;;;;;;;;25.25;21.00;;;;;19.74;74.27;101710.50;5038193;28;45208;-42
2023/09/14 01:31:30;;;;;;;;;17.00;17.00;;;;;19.72;74.10;101700.88;5037292;28;47037;-39
2023/09/14 01:33:55;;;;;;;;;24.00;19.00;;;;;19.74;74.63;101702.41;5037370;28;45485;-39
2023/09/14 01:36:29;;;;;;;;;21.67;19.67;;;;;19.75;74.38;101706.75;5037466;28;45467;-39
2023/09/14 01:38:55;;;;;;;;;21.00;17.75;;;;;19.71;74.80;101707.31;5037809;28;45934;-38
2023/09/14 01:41:21;;;;;;;;;17.50;15.75;;;;;19.71;75.24;101712.72;5036621;28;46986;-39
2023/09/14 01:43:50;;;;;;;;;17.75;17.00;;;;;19.72;75.44;101704.47;5037280;28;45394;-37
2023/09/14 01:46:16;;;;;;;;;20.75;20.75;;;;;19.69;74.76;101694.84;5037431;28;45266;-38
2023/09/14 01:48:41;;;;;;;;;22.00;16.25;;;;;19.69;74.88;101704.81;5036303;28;45366;-39
2023/09/14 01:51:07;;;;;;;;;19.00;19.00;;;;;19.64;75.12;101705.38;5036439;28;45444;-39
2023/09/14 01:53:32;;;;;;;;;20.00;18.33;;;;;19.60;75.51;101704.03;5037392;28;45431;-38
2023/09/14 01:55:58;;;;;;;;;22.25;16.75;;;;;19.58;75.29;101706.03;5037129;28;45256;-37
2023/09/14 01:58:23;;;;;;;;;19.00;16.75;;;;;19.54;75.62;101695.81;5037428;28;45377;-37
2023/09/14 02:00:48;;;;;;;;;20.50;19.25;;;;;19.51;75.70;101696.16;5036502;28;45339;-39
2023/09/14 02:03:14;;;;;;;;;21.50;19.25;;;;;19.50;75.57;101700.72;5037298;28;50004;-38
2023/09/14 02:05:40;;;;;;;;;20.67;19.00;;;;;19.47;75.24;101703.81;5037276;28;45345;-38
2023/09/14 02:08:05;;;;;;;;;21.33;19.67;;;;;19.36;75.65;101691.56;5037870;28;45483;-40
2023/09/14 02:10:31;;;;;;;;;21.75;16.25;;;;;19.46;76.82;101702.09;5037219;28;45524;-36
2023/09/14 02:12:56;;;;;;;;;22.33;18.67;;;;;19.44;75.85;101710.41;5037112;28;45294;-38
2023/09/14 02:15:21;;;;;;;;;23.00;20.33;;;;;19.39;76.16;101709.28;5037087;28;45757;-42
2023/09/14 02:17:47;;;;;;;;;21.67;19.00;;;;;19.38;76.31;101713.84;5037170;28;45308;-38
2023/09/14 02:20:12;;;;;;;;;20.00;17.75;;;;;19.36;76.31;101721.25;5036773;28;45457;-37
2023/09/14 02:22:38;;;;;;;;;17.00;16.00;;;;;19.34;76.23;101695.47;5035817;28;45469;-38
2023/09/14 02:25:03;;;;;;;;;20.33;18.67;;;;;19.30;76.87;101686.91;5037265;28;45268;-38
2023/09/14 02:27:29;;;;;;;;;19.00;19.00;;;;;19.32;76.70;101695.66;5037031;28;45295;-37
2023/09/14 02:29:54;;;;;;;;;24.00;21.33;;;;;19.36;76.57;101698.84;5036746;28;45408;-38
2023/09/14 02:32:20;;;;;;;;;15.67;14.67;;;;;19.35;76.40;101698.00;5036925;28;45421;-39
2023/09/14 02:34:46;;;;;;;;;27.33;23.33;;;;;19.31;75.90;101693.16;5036363;28;45229;-39
2023/09/14 02:37:12;;;;;;;;;19.50;16.50;;;;;19.34;76.67;101699.03;5037033;28;45227;-38
2023/09/14 02:39:38;;;;;;;;;23.50;21.75;;;;;19.34;77.03;101700.84;5036471;28;46444;-38
2023/09/14 02:42:03;;;;;;;;;22.00;20.00;;;;;19.33;77.11;101697.31;5036593;28;45548;-37
2023/09/14 02:44:29;;;;;;;;;18.33;18.33;;;;;19.32;76.52;101694.81;5036687;28;45524;-38
2023/09/14 02:46:54;;;;;;;;;19.25;18.50;;;;;19.34;77.01;101695.47;5036726;28;45357;-38
2023/09/14 02:49:19;;;;;;;;;27.00;17.25;;;;;19.35;77.02;101694.47;5036363;28;46122;-38
2023/09/14 02:51:45;;;;;;;;;24.33;21.00;;;;;19.32;76.73;101690.25;5036360;28;45403;-39
2023/09/14 02:54:10;;;;;;;;;17.67;17.67;;;;;19.32;76.37;101689.41;5035552;28;45549;-41
2023/09/14 02:56:35;;;;;;;;;22.33;20.00;;;;;19.29;76.59;101685.22;5036604;28;45757;-39
2023/09/14 02:59:00;;;;;;;;;20.50;19.25;;;;;19.28;76.91;101688.94;5036395;28;46172;-39
2023/09/14 03:01:28;;;;;;;;;24.33;21.33;;;;;19.26;76.69;101691.00;5036136;28;45414;-39
2023/09/14 03:03:53;;;;;;;;;26.33;20.33;;;;;19.23;75.88;101685.13;5036376;28;45433;-38
2023/09/14 03:06:18;;;;;;;;;21.67;21.33;;;;;19.23;77.07;101685.13;5036416;28;45396;-38
2023/09/14 03:08:44;;;;;;;;;24.33;20.33;;;;;19.19;77.05;101682.78;5035875;28;45836;-38
2023/09/14 03:11:09;;;;;;;;;24.67;20.00;;;;;19.19;77.03;101685.47;5036128;28;45282;-37
2023/09/14 03:13:34;;;;;;;;;25.33;19.67;;;;;19.18;76.55;101681.09;5036135;28;45218;-39
2023/09/14 03:16:00;;;;;;;;;24.00;21.00;;;;;19.13;76.53;101678.09;5036525;28;45309;-39
2023/09/14 03:18:26;;;;;;;;;27.33;24.67;;;;;19.13;76.53;101685.34;5035839;28;46530;-38
2023/09/14 03:20:53;;;;;;;;;26.25;22.50;;;;;19.09;76.51;101682.19;5035783;28;45395;-38
2023/09/14 03:23:18;;;;;;;;;21.00;18.25;;;;;19.08;76.65;101676.94;5035279;28;45400;-37
2023/09/14 03:25:45;;;;;;;;;25.33;23.67;;;;;19.06;76.46;101677.16;5035919;28;45352;-38
2023/09/14 03:28:11;;;;;;;;;22.67;20.00;;;;;19.04;76.24;101675.63;5035606;28;47000;-38
2023/09/14 03:30:37;;;;;;;;;23.33;20.67;;;;;19.00;77.35;101677.84;5035709;28;45236;-39
2023/09/14 03:33:03;;;;;;;;;26.67;20.33;;;;;18.95;77.58;101672.16;5036128;28;45247;-38
2023/09/14 03:35:28;;;;;;;;;19.33;19.33;;;;;18.93;77.77;101672.34;5035832;28;45370;-39
2023/09/14 03:37:54;;;;;;;;;22.33;19.00;;;;;18.85;77.68;101666.16;5035488;28;46934;-39
2023/09/14 03:40:20;;;;;;;;;23.33;19.33;;;;;18.87;78.01;101669.50;5035648;28;45231;-38
2023/09/14 03:42:46;;;;;;;;;24.00;23.00;;;;;18.87;77.83;101672.22;5035638;28;45406;-38
2023/09/14 03:45:11;;;;;;;;;22.67;19.00;;;;;18.82;77.89;101672.75;5036002;28;45397;-38
2023/09/14 03:47:36;;;;;;;;;24.00;21.67;;;;;18.82;78.11;101670.06;5035335;28;46467;-39
2023/09/14 03:50:02;;;;;;;;;20.67;18.67;;;;;18.80;78.64;101663.19;5035810;28;45293;-39
2023/09/14 03:52:27;;;;;;;;;23.67;20.33;;;;;18.81;78.37;101667.53;5035126;28;45441;-39
2023/09/14 03:54:53;;;;;;;;;22.67;22.00;;;;;18.83;78.32;101670.88;5035599;28;45382;-38
2023/09/14 03:57:18;;;;;;;;;23.67;21.67;;;;;18.82;78.15;101658.44;5035213;28;48854;-38
2023/09/14 03:59:45;;;;;;;;;25.00;22.33;;;;;18.85;78.70;101664.31;5035041;28;45374;-38
2023/09/14 04:02:10;;;;;;;;;21.00;20.33;;;;;18.85;78.84;101663.47;5035425;28;45461;-39
2023/09/14 04:04:42;;;;;;;;;22.00;19.75;;;;;18.86;78.06;101662.44;5036037;28;45370;-38
2023/09/14 04:07:08;;;;;;;;;23.00;19.00;;;;;18.84;78.32;101661.81;5038577;28;47345;-38
2023/09/14 04:09:33;;;;;;;;;19.25;17.75;;;;;18.84;78.41;101661.81;5038933;28;45494;-38
2023/09/14 04:11:59;;;;;;;;;17.50;16.00;;;;;18.84;78.80;101661.81;5038938;28;45294;-38
2023/09/14 04:14:24;;;;;;;;;19.67;19.67;;;;;18.85;78.64;101655.38;5038839;28;45393;-38
2023/09/14 04:16:51;;;;;;;;;22.33;20.67;;;;;18.82;78.88;101650.34;5038639;28;50649;-40
2023/09/14 04:19:17;;;;;;;;;21.67;20.67;;;;;18.82;79.13;101653.88;5038652;28;45436;-39
2023/09/14 04:21:43;;;;;;;;;26.00;22.00;;;;;18.76;78.40;101643.00;5039164;28;45394;-38
2023/09/14 04:24:11;;;;;;;;;21.67;19.67;;;;;18.80;78.77;101655.09;5039566;28;45334;-39
2023/09/14 04:26:38;;;;;;;;;19.00;16.33;;;;;18.80;79.12;101652.41;5038716;28;46259;-38
2023/09/14 04:29:03;;;;;;;;;22.67;21.00;;;;;18.83;79.29;101654.72;5039056;28;45820;-41
2023/09/14 04:31:29;;;;;;;;;15.00;14.67;;;;;18.84;79.15;101669.91;5039058;28;45476;-39
2023/09/14 04:33:54;;;;;;;;;24.67;20.33;;;;;18.85;78.51;101666.16;5038821;28;45393;-43
2023/09/14 04:36:19;;;;;;;;;53.00;44.67;;;;;18.73;79.01;101648.72;5038879;28;50190;-38
2023/09/14 04:38:44;;;;;;;;;44.00;28.67;;;;;18.84;78.95;101662.63;5038834;28;45298;-40
2023/09/14 04:41:10;;;;;;;;;40.67;30.33;;;;;18.89;78.92;101664.78;5038620;28;45448;-38
2023/09/14 04:43:36;;;;;;;;;25.00;22.67;;;;;18.91;79.01;101657.34;5038734;28;45516;-41
2023/09/14 04:46:04;;;;;;;;;25.67;19.33;;;;;18.82;78.97;101645.78;5038985;28;47082;-42
2023/09/14 04:48:30;;;;;;;;;20.67;18.00;;;;;18.92;78.89;101667.97;5039249;28;45356;-39
2023/09/14 04:50:58;;;;;;;;;22.00;20.67;;;;;18.95;78.69;101672.16;5037963;28;45443;-39
2023/09/14 04:53:26;;;;;;;;;20.33;19.00;;;;;18.96;78.88;101671.13;5039084;28;45468;-38
2023/09/14 04:55:51;;;;;;;;;23.67;21.00;;;;;18.95;78.84;101669.47;5038294;28;45758;-42
2023/09/14 04:58:17;;;;;;;;;25.33;21.67;;;;;18.94;78.55;101670.50;5036991;28;45776;-37
2023/09/14 05:00:42;;;;;;;;;22.00;17.67;;;;;18.95;78.73;101669.47;5038554;28;45778;-36
2023/09/14 05:03:08;;;;;;;;;22.00;21.25;;;;;18.87;79.03;101653.34;5038617;28;45461;-38
2023/09/14 05:05:34;;;;;;;;;20.00;19.33;;;;;18.93;78.28;101664.25;5038203;28;56319;-40
2023/09/14 05:07:59;;;;;;;;;24.00;20.67;;;;;18.90;78.75;101666.47;5037848;28;45353;-39
2023/09/14 05:10:25;;;;;;;;;26.00;18.00;;;;;18.90;78.79;101677.25;5038009;28;45415;-39
2023/09/14 05:12:51;;;;;;;;;30.33;23.67;;;;;18.88;78.55;101676.59;5038180;28;45749;-40
2023/09/14 05:15:17;;;;;;;;;19.33;16.33;;;;;18.86;79.05;101681.31;5037971;28;45496;-36
2023/09/14 05:17:43;;;;;;;;;26.00;20.33;;;;;18.84;78.61;101681.50;5037219;28;45281;-39
2023/09/14 05:20:08;;;;;;;;;23.67;20.33;;;;;18.78;78.09;101679.50;5037930;28;45365;-40
2023/09/14 05:22:34;;;;;;;;;25.67;23.00;;;;;18.78;78.57;101682.22;5038097;28;45383;-39
2023/09/14 05:25:00;;;;;;;;;33.67;26.33;;;;;18.74;78.97;101680.88;5037840;28;46203;-41
2023/09/14 05:27:25;;;;;;;;;30.33;24.67;;;;;18.74;78.88;101685.44;5037918;28;45444;-39
2023/09/14 05:29:51;;;;;;;;;35.33;24.67;;;;;18.71;78.84;101686.66;5037850;28;45230;-38
2023/09/14 05:32:16;;;;;;;;;32.33;28.00;;;;;18.67;79.44;101685.28;5037996;28;45500;-38
2023/09/14 05:34:42;;;;;;;;;28.33;24.33;;;;;18.67;78.85;101690.69;5037255;28;47134;-38
2023/09/14 05:37:08;;;;;;;;;24.00;23.33;;;;;18.66;79.54;101691.66;5037416;28;45482;-36
2023/09/14 05:39:33;;;;;;;;;30.33;25.67;;;;;18.64;79.14;101688.34;5037710;28;45422;-37
2023/09/14 05:41:58;;;;;;;;;31.00;25.00;;;;;18.66;79.17;101708.69;5037723;28;45330;-39
2023/09/14 05:44:24;;;;;;;;;23.00;23.00;;;;;18.65;78.47;101696.22;5037419;28;45486;-38
2023/09/14 05:46:49;;;;;;;;;23.33;23.33;;;;;18.60;78.61;101693.22;5037248;28;45207;-37
2023/09/14 05:49:14;;;;;;;;;21.00;20.00;;;;;18.59;78.90;101693.41;5037756;28;45209;-37
2023/09/14 05:51:40;;;;;;;;;28.33;22.00;;;;;18.60;78.64;101692.41;5036432;28;45441;-39
2023/09/14 05:54:05;;;;;;;;;30.33;27.67;;;;;18.57;78.81;101701.66;5037365;28;47109;-38
2023/09/14 05:56:32;;;;;;;;;26.33;24.00;;;;;18.58;79.43;101689.03;5037526;28;45371;-38
2023/09/14 05:58:57;;;;;;;;;30.33;24.00;;;;;18.62;79.38;101696.56;5036085;28;45446;-38
2023/09/14 06:01:23;;;;;;;;;32.33;26.00;;;;;18.66;79.61;101703.28;5037659;28;46035;-37
2023/09/14 06:03:48;;;;;;;;;35.00;29.33;;;;;18.71;79.26;101697.44;5037064;28;46139;-40
2023/09/14 06:06:14;;;;;;;;;25.67;20.00;;;;;18.75;79.24;101701.44;5037670;28;45559;-40
2023/09/14 06:08:40;;;;;;;;;29.00;26.33;;;;;18.78;78.94;101703.78;5037532;28;45432;-41
2023/09/14 06:11:06;;;;;;;;;26.67;23.00;;;;;18.80;78.69;101701.75;5037759;28;45507;-45
2023/09/14 06:13:31;;;;;;;;;29.67;24.00;;;;;18.82;78.56;101701.56;5037207;28;46305;-38
2023/09/14 06:15:57;;;;;;;;;30.33;25.00;;;;;18.85;78.77;101714.69;5037177;28;45412;-42
2023/09/14 06:18:22;;;;;;;;;27.00;23.67;;;;;18.89;78.93;101706.06;5037288;28;45388;-37
2023/09/14 06:20:48;;;;;;;;;26.33;22.00;;;;;18.91;78.60;101706.72;5037071;28;45792;-40
2023/09/14 06:23:13;;;;;;;;;25.00;20.33;;;;;18.98;78.53;101706.03;5037160;28;45951;-39
2023/09/14 06:25:38;;;;;;;;;29.00;23.00;;;;;19.05;77.95;101709.69;5036957;28;45440;-41
2023/09/14 06:28:04;;;;;;;;;25.67;23.67;;;;;19.09;78.13;101711.84;5036300;28;45476;-40
2023/09/14 06:30:30;;;;;;;;;28.67;26.67;;;;;19.17;78.17;101703.72;5036812;28;45272;-37
2023/09/14 06:32:55;;;;;;;;;23.00;21.67;;;;;19.28;78.19;101715.91;5036700;28;45694;-39
2023/09/14 06:35:20;;;;;;;;;24.00;22.00;;;;;19.33;77.84;101705.41;5036702;28;45322;-38
2023/09/14 06:37:46;;;;;;;;;32.33;24.33;;;;;19.37;77.80;101708.59;5036810;28;45257;-40
2023/09/14 06:40:11;;;;;;;;;25.33;20.33;;;;;19.44;77.10;101709.56;5037122;28;45298;-37
2023/09/14 06:42:37;;;;;;;;;27.00;26.33;;;;;19.46;76.96;101715.59;5036538;28;46176;-40
2023/09/14 06:45:03;;;;;;;;;30.67;24.00;;;;;19.48;76.42;101716.28;5036824;28;45714;-39
2023/09/14 06:47:28;;;;;;;;;30.67;24.33;;;;;19.47;76.78;101711.91;5035892;28;45405;-39
2023/09/14 06:49:54;;;;;;;;;28.33;25.00;;;;;19.53;75.97;101723.81;5036771;28;45361;-39
2023/09/14 06:52:19;;;;;;;;;27.67;24.67;;;;;19.41;76.07;101699.94;5036452;28;45821;-38
2023/09/14 06:54:46;;;;;;;;;27.67;24.00;;;;;19.57;75.56;101714.34;5036412;28;45336;-38
2023/09/14 06:57:12;;;;;;;;;28.33;23.00;;;;;19.63;75.44;101719.03;5036522;28;45516;-39
2023/09/14 06:59:37;;;;;;;;;25.33;24.00;;;;;19.71;74.80;101720.81;5036451;28;45393;-38
2023/09/14 07:02:02;;;;;;;;;27.00;21.33;;;;;19.71;74.84;101720.81;5035649;28;46027;-36
2023/09/14 07:04:29;;;;;;;;;29.75;24.50;;;;;19.77;74.58;101720.94;5036122;28;45438;-39
2023/09/14 07:06:54;;;;;;;;;28.33;24.67;;;;;19.90;73.88;101723.00;5036504;28;45342;-39
2023/09/14 07:09:20;;;;;;;;;27.00;22.67;;;;;19.92;73.87;101724.47;5036640;28;45469;-36
2023/09/14 07:11:45;;;;;;;;;23.00;20.00;;;;;19.92;73.64;101723.66;5035890;28;46547;-37
2023/09/14 07:14:10;;;;;;;;;27.00;24.00;;;;;19.93;73.65;101725.31;5036248;28;45417;-38
2023/09/14 07:16:35;;;;;;;;;24.67;23.67;;;;;19.94;73.63;101717.06;5036727;28;45297;-40
2023/09/14 07:19:02;;;;;;;;;35.00;30.33;;;;;20.04;73.15;101724.03;5036824;28;45266;-40
2023/09/14 07:21:32;;;;;;;;;26.50;22.00;;;;;20.00;73.13;101712.75;5036117;28;46927;-39
2023/09/14 07:23:57;;;;;;;;;29.00;26.00;;;;;20.06;72.88;101730.09;5036225;28;45346;-40
2023/09/14 07:26:22;;;;;;;;;27.33;26.00;;;;;20.10;73.37;101729.56;5036343;28;45391;-37
2023/09/14 07:28:48;;;;;;;;;31.00;25.33;;;;;20.16;72.73;101730.66;5035975;28;45477;-44
2023/09/14 07:31:13;;;;;;;;;28.75;26.00;;;;;20.21;72.93;101732.81;5036224;28;45931;-38
2023/09/14 07:33:39;;;;;;;;;22.75;21.00;;;;;20.25;72.91;101729.53;5035947;28;45449;-37
2023/09/14 07:36:04;;;;;;;;;26.00;26.00;;;;;20.33;72.03;101731.31;5036208;28;45317;-39
2023/09/14 07:38:30;;;;;;;;;24.50;22.50;;;;;20.40;71.85;101727.69;5036044;28;45474;-37
2023/09/14 07:40:56;;;;;;;;;23.50;23.25;;;;;20.47;71.90;101726.91;5034543;28;45966;-39
2023/09/14 07:43:21;;;;;;;;;24.25;22.75;;;;;20.51;71.77;101736.34;5035924;28;45283;-39
2023/09/14 07:45:47;;;;;;;;;26.67;22.67;;;;;20.70;71.03;101732.25;5035260;28;45386;-39
2023/09/14 07:48:12;;;;;;;;;25.75;20.50;;;;;20.92;70.61;101732.09;5036155;28;45303;-38
2023/09/14 07:50:39;;;;;;;;;27.50;22.75;;;;;20.96;69.64;101721.72;5035685;28;47014;-37
2023/09/14 07:53:09;;;;;;;;;25.75;21.25;;;;;21.08;69.41;101728.31;5035774;28;45583;-37
2023/09/14 07:55:35;;;;;;;;;25.00;23.25;;;;;21.18;69.55;101726.13;5035798;28;45316;-38
2023/09/14 07:58:01;;;;;;;;;25.25;21.25;;;;;21.29;68.65;101722.06;5035976;28;45291;-38
2023/09/14 08:00:27;;;;;;;;;33.75;25.25;;;;;21.38;68.32;101728.22;5035290;28;45378;-35
2023/09/14 08:02:53;;;;;;;;;24.50;22.00;;;;;21.41;68.70;101727.84;5035652;28;45401;-41
2023/09/14 08:05:18;;;;;;;;;25.25;24.00;;;;;21.58;67.83;101731.13;5035796;28;45243;-38
2023/09/14 08:07:43;;;;;;;;;30.50;24.75;;;;;21.79;67.30;101732.94;5035828;28;45631;-38
2023/09/14 08:10:09;;;;;;;;;26.75;24.75;;;;;21.86;67.05;101739.22;5034328;28;45448;-38
2023/09/14 08:12:36;;;;;;;;;24.50;22.50;;;;;21.75;67.17;101720.84;5035419;28;45385;-38
2023/09/14 08:15:03;;;;;;;;;26.50;24.25;;;;;21.80;67.52;101738.16;5035519;28;45238;-38
2023/09/14 08:17:28;;;;;;;;;30.50;21.75;;;;;21.78;67.09;101747.50;5035700;28;45443;-39
2023/09/14 08:19:53;;;;;;;;;22.75;21.25;;;;;21.81;67.14;101750.66;5035179;28;45385;-38
2023/09/14 08:22:22;;;;;;;;;27.00;25.50;;;;;21.96;66.85;101750.59;5035291;28;45332;-39
2023/09/14 08:24:48;;;;;;;;;22.50;20.50;;;;;23.88;62.31;101750.44;5035555;28;45397;-38
2023/09/14 08:27:14;;;;;;;;;28.50;24.00;;;;;25.59;57.46;101752.69;5035701;28;45547;-39
2023/09/14 08:29:39;;;;;;;;;23.75;20.50;;;;;25.65;57.57;101743.63;5035000;28;46994;-37
2023/09/14 08:32:04;;;;;;;;;17.25;17.00;;;;;25.10;57.41;101744.22;5035186;28;45390;-39
2023/09/14 08:34:30;;;;;;;;;22.75;19.75;;;;;24.65;58.21;101740.69;5035176;28;45817;-36
2023/09/14 08:36:55;;;;;;;;;19.25;19.25;;;;;24.56;59.64;101750.94;5034621;28;45417;-39
2023/09/14 08:39:20;;;;;;;;;24.50;22.25;;;;;24.36;58.21;101751.00;5035260;28;45328;-38
2023/09/14 08:41:46;;;;;;;;;24.75;21.25;;;;;24.24;58.71;101747.25;5035049;28;45448;-37
2023/09/14 08:44:14;;;;;;;;;22.25;20.75;;;;;23.95;58.99;101748.56;5035249;28;45457;-39
2023/09/14 08:46:41;;;;;;;;;25.25;22.25;;;;;23.69;59.34;101732.28;5035399;28;45358;-38
2023/09/14 08:49:09;;;;;;;;;24.00;19.75;;;;;23.78;59.62;101750.03;5035060;28;46053;-39
2023/09/14 08:51:37;;;;;;;;;26.00;21.40;;;;;23.74;59.99;101748.78;5035728;28;45342;-36
2023/09/14 08:54:04;;;;;;;;;25.40;20.00;;;;;23.86;59.50;101747.94;5038661;28;45512;-38
2023/09/14 08:56:30;;;;;;;;;20.75;20.50;;;;;23.87;59.34;101741.47;5038879;28;45444;-39
2023/09/14 08:58:57;;;;;;;;;23.00;21.00;;;;;23.99;59.24;101752.53;5038428;28;46300;-38
2023/09/14 09:01:22;;;;;;;;;24.20;23.40;;;;;25.00;58.05;101748.47;5037450;28;45417;-39
2023/09/14 09:03:47;;;;;;;;;26.25;22.00;;;;;25.20;55.91;101749.22;5037668;28;45357;-38
2023/09/14 09:06:17;;;;;;;;;24.25;22.00;;;;;24.99;56.26;101753.06;5038486;28;45469;-40
2023/09/14 09:08:42;;;;;;;;;28.40;22.60;;;;;24.85;56.67;101754.19;5037532;28;45496;-38
2023/09/14 09:11:08;;;;;;;;;29.75;26.25;;;;;24.64;57.54;101756.16;5036815;28;45425;-38
2023/09/14 09:13:35;;;;;;;;;22.75;21.25;;;;;24.40;58.01;101748.72;5037756;28;45647;-38
2023/09/14 09:16:01;;;;;;;;;26.75;23.25;;;;;24.19;58.57;101741.63;5038426;28;45369;-38
2023/09/14 09:18:27;;;;;;;;;22.75;21.25;;;;;24.18;58.67;101749.97;5038058;28;45359;-39
2023/09/14 09:20:53;;;;;;;;;25.50;23.00;;;;;24.21;59.06;101747.69;5038135;28;45321;-38
2023/09/14 09:23:21;;;;;;;;;24.25;18.75;;;;;24.09;59.14;101739.34;5038202;28;45207;-39
2023/09/14 09:25:48;;;;;;;;;25.50;20.75;;;;;23.93;60.35;101745.22;5038355;28;45404;-35
2023/09/14 09:28:14;;;;;;;;;25.00;23.50;;;;;23.70;60.01;101755.69;5037910;28;45444;-38
2023/09/14 09:30:40;;;;;;;;;26.00;25.00;;;;;23.54;60.78;101736.00;5037880;28;45280;-37
2023/09/14 09:33:05;;;;;;;;;24.75;23.25;;;;;23.72;60.34;101754.41;5038213;28;45338;-38
2023/09/14 09:35:31;;;;;;;;;25.50;23.50;;;;;23.62;60.88;101749.38;5037710;28;45788;-38
2023/09/14 09:38:08;;;;;;;;;57.50;35.00;;;;;23.54;60.90;101752.28;5037879;28;45294;-38
2023/09/14 09:40:34;;;;;;;;;26.80;23.60;;;;;23.41;61.88;101750.41;5038051;28;45414;-39
2023/09/14 09:43:03;;;;;;;;;42.25;29.25;;;;;23.36;62.22;101757.50;5037756;28;45320;-38
2023/09/14 09:45:29;;;;;;;;;30.75;25.25;;;;;23.42;62.06;101756.66;5037871;28;45520;-38
2023/09/14 09:47:55;;;;;;;;;28.00;23.00;;;;;23.49;61.83;101746.66;5037675;28;46138;-39
2023/09/14 09:50:22;;;;;;;;;21.00;17.75;;;;;23.62;60.28;101741.22;5037616;28;45286;-37
2023/09/14 09:52:48;;;;;;;;;22.20;19.40;;;;;23.58;60.97;101741.84;5037608;28;45363;-38
2023/09/14 09:55:25;;;;;;;;;25.50;23.00;;;;;23.51;60.40;101741.88;5037900;28;45609;-39
2023/09/14 09:57:59;;;;;;;;;29.50;25.50;;;;;23.49;60.03;101737.69;5037475;28;45444;-39
2023/09/14 10:00:39;;;;;;;;;19.40;18.60;;;;;23.61;59.70;101745.00;5037055;28;45338;-39
2023/09/14 10:03:05;;;;;;;;;26.00;23.00;;;;;23.61;59.37;101736.84;5037223;28;45331;-39
2023/09/14 10:05:32;;;;;;;;;24.50;20.50;;;;;23.69;59.70;101737.72;5037548;28;45406;-37
2023/09/14 10:07:59;;;;;;;;;22.40;20.20;;;;;23.71;59.31;101736.44;5037254;28;45355;-39
2023/09/14 10:10:27;;;;;;;;;25.25;21.25;;;;;23.61;59.63;101728.69;5037205;28;45413;-40
2023/09/14 10:12:54;;;;;;;;;25.20;19.20;;;;;23.62;59.26;101732.25;5037417;28;45489;-39
2023/09/14 10:15:20;;;;;;;;;27.25;24.50;;;;;23.60;59.45;101735.19;5037326;28;45381;-38
2023/09/14 10:17:51;;;;;;;;;21.75;18.75;;;;;23.47;59.21;101724.31;5037162;28;46309;-38
2023/09/14 10:20:16;;;;;;;;;20.20;17.20;;;;;23.53;58.68;101731.63;5036878;28;45318;-38
2023/09/14 10:22:46;;;;;;;;;16.00;16.00;;;;;25.70;54.86;101732.06;5037347;28;45419;-39
2023/09/14 10:25:12;;;;;;;;;13.80;13.80;;;;;26.32;52.37;101722.00;5037531;28;45455;-40
2023/09/14 10:27:38;;;;;;;;;16.75;14.00;;;;;25.84;53.20;101718.13;5037105;28;46092;-40
2023/09/14 10:30:06;;;;;;;;;12.20;10.20;;;;;25.46;53.98;101728.28;5037101;28;45545;-40
2023/09/14 10:32:37;;;;;;;;;10.40;10.40;;;;;25.15;54.91;101729.94;5036978;28;45333;-40
2023/09/14 10:35:04;;;;;;;;;8.60;8.60;;;;;25.10;54.57;101730.63;5037201;28;45268;-39
2023/09/14 10:37:30;;;;;;;;;10.60;10.60;;;;;25.16;54.09;101712.59;5036967;28;46254;-37
2023/09/14 10:39:58;;;;;;;;;11.25;9.00;;;;;25.46;53.49;101712.78;5036781;28;45388;-39
2023/09/14 10:42:24;;;;;;;;;9.20;7.80;;;;;26.30;51.41;101700.44;5037275;28;45499;-39
2023/09/14 10:44:50;;;;;;;;;8.75;7.75;;;;;30.28;48.44;101680.72;5037328;28;45277;-38
2023/09/14 10:47:21;;;;;;;;;7.50;5.75;;;;;33.84;37.59;101685.63;5036760;28;46209;-36
2023/09/14 10:49:48;;;;;;;;;6.40;6.40;;;;;36.58;35.61;101683.75;5036948;28;45343;-38
2023/09/14 10:52:23;;;;;;;;;9.20;9.00;;;;;38.91;32.85;101674.84;5036028;28;45507;-38
2023/09/14 10:54:49;;;;;;;;;10.60;6.20;;;;;40.79;28.47;101675.38;5037196;28;45427;-38
2023/09/14 10:57:23;;;;;;;;;7.50;7.00;;;;;42.19;28.44;101674.63;5036649;28;46753;-40
2023/09/14 10:59:54;;;;;;;;;7.80;6.80;;;;;43.39;23.87;101673.91;5036764;28;46017;-39
2023/09/14 11:02:43;;;;;;;;;7.60;7.60;;;;;44.63;23.24;101665.06;5036742;28;45492;-40
2023/09/14 11:05:15;;;;;;;;;9.00;7.60;;;;;45.67;24.17;101668.69;5031283;28;45593;-39